Time;durP1;ratioP1;P1;durP2;ratioP2;P2;SDS_P1;SDS_P2;PMS_P1;PMS_P2;Temp;Humidity;BMP_temperature;BMP_pressure;BME280_temperature;BME280_humidity;BME280_pressure;Samples;Min_cycle;Max_cycle;Signal;HPM_P1;HPM_P2
2022/04/18 00:01:34;;;;;;;4.60;3.20;;;;;;;2.87;nan;100624.81;5010693;28;20160;-69
2022/04/18 00:04:00;;;;;;;5.18;3.42;;;;;;;2.87;nan;100624.00;5010260;28;20033;-69
2022/04/18 00:06:26;;;;;;;5.80;3.05;;;;;;;2.87;nan;100626.59;5008205;28;20034;-68
2022/04/18 00:08:51;;;;;;;5.93;2.92;;;;;;;2.79;nan;100621.44;5009178;28;20116;-68
2022/04/18 00:11:17;;;;;;;5.47;3.50;;;;;;;2.80;nan;100618.66;5009903;28;20033;-68
2022/04/18 00:13:42;;;;;;;7.32;3.70;;;;;;;2.69;nan;100616.44;5010425;28;20113;-68
2022/04/18 00:16:08;;;;;;;6.15;3.53;;;;;;;2.72;nan;100619.50;5008512;28;20034;-68
2022/04/18 00:18:33;;;;;;;6.32;3.30;;;;;;;2.65;nan;100610.75;5010155;28;20053;-69
2022/04/18 00:20:59;;;;;;;6.35;3.35;;;;;;;2.71;nan;100622.31;5008421;28;20033;-69
2022/04/18 00:23:25;;;;;;;6.50;3.30;;;;;;;2.70;nan;100625.84;5010641;28;20069;-69
2022/04/18 00:25:50;;;;;;;7.50;3.35;;;;;;;2.57;nan;100600.41;5010379;28;20112;-68
2022/04/18 00:28:16;;;;;;;7.55;3.75;;;;;;;2.64;nan;100614.34;5009447;28;20034;-69
2022/04/18 00:30:41;;;;;;;6.47;3.70;;;;;;;2.58;nan;100609.00;5011004;28;20049;-68
2022/04/18 00:33:09;;;;;;;9.60;3.38;;;;;;;2.39;nan;100581.59;5009229;28;20092;-68
2022/04/18 00:35:35;;;;;;;5.93;3.55;;;;;;;2.51;nan;100595.84;5010308;28;20037;-68
2022/04/18 00:38:00;;;;;;;6.97;3.53;;;;;;;2.54;nan;100604.16;5018604;28;20046;-67
2022/04/18 00:40:26;;;;;;;9.25;3.50;;;;;;;2.34;nan;100588.09;5024623;28;20096;-68
2022/04/18 00:42:51;;;;;;;6.35;4.10;;;;;;;2.36;nan;100594.94;5023007;28;20033;-68
2022/04/18 00:45:17;;;;;;;6.78;3.30;;;;;;;2.22;nan;100586.03;5024417;28;20025;-69
2022/04/18 00:47:42;;;;;;;6.70;3.70;;;;;;;2.13;nan;100580.84;5024018;28;20065;-69
2022/04/18 00:50:08;;;;;;;7.05;3.72;;;;;;;2.07;nan;100585.91;5023825;28;20034;-68
2022/04/18 00:52:36;;;;;;;4.88;3.17;;;;;;;2.09;nan;100592.53;5011520;28;20041;-68
2022/04/18 00:55:02;;;;;;;5.60;3.17;;;;;;;2.12;nan;100586.22;5009881;28;20044;-68
2022/04/18 00:57:28;;;;;;;5.57;3.60;;;;;;;2.06;nan;100581.66;5010390;28;20033;-68
2022/04/18 00:59:54;;;;;;;6.53;4.22;;;;;;;2.08;nan;100590.94;5008290;28;20042;-68
2022/04/18 01:02:19;;;;;;;6.50;3.90;;;;;;;2.05;nan;100587.84;5009805;28;20080;-69
2022/04/18 01:04:45;;;;;;;6.78;3.60;;;;;;;2.02;nan;100588.97;5009693;28;20522;-68
2022/04/18 01:07:12;;;;;;;6.85;3.75;;;;;;;2.06;nan;100584.25;5024527;28;20026;-69
2022/04/18 01:09:38;;;;;;;6.38;3.67;;;;;;;1.99;nan;100588.47;5009987;28;20578;-68
2022/04/18 01:12:04;;;;;;;6.65;3.78;;;;;;;1.71;nan;100536.91;5009847;28;20056;-68
2022/04/18 01:14:29;;;;;;;7.32;3.97;;;;;;;1.98;nan;100573.88;5009533;28;20120;-69
2022/04/18 01:16:55;;;;;;;6.95;4.13;;;;;;;1.93;nan;100566.59;5008397;28;20153;-69
2022/04/18 01:19:21;;;;;;;7.05;4.00;;;;;;;1.86;nan;100552.63;5013160;28;20069;-66
2022/04/18 01:21:46;;;;;;;5.65;3.50;;;;;;;2.00;nan;100574.53;5012264;28;20045;-67
2022/04/18 01:29:39;;;;;;;9.32;4.15;;;;;;;1.83;nan;100547.78;5012754;28;20061;-67
2022/04/18 01:32:05;;;;;;;6.43;3.80;;;;;;;1.62;nan;100514.53;5013518;28;20116;-68
2022/04/18 01:34:31;;;;;;;7.25;3.95;;;;;;;1.94;nan;100564.78;5011952;28;20521;-69
2022/04/18 01:36:57;;;;;;;5.95;3.97;;;;;;;1.87;nan;100557.69;5011208;28;20141;-69
2022/04/18 01:39:22;;;;;;;8.07;4.38;;;;;;;1.73;nan;100540.16;5012674;28;20120;-69
2022/04/18 01:41:47;;;;;;;6.55;3.90;;;;;;;1.71;nan;100547.31;5011263;28;20500;-68
2022/04/18 01:44:13;;;;;;;7.45;4.13;;;;;;;1.73;nan;100547.94;5013214;28;20034;-68
2022/04/18 01:46:38;;;;;;;7.07;4.22;;;;;;;1.67;nan;100546.81;5012458;28;20659;-69
2022/04/18 01:49:04;;;;;;;7.53;3.85;;;;;;;1.59;nan;100539.03;5012713;28;20085;-69
2022/04/18 01:51:29;;;;;;;8.23;3.90;;;;;;;1.49;nan;100531.41;5012118;28;20034;-68
2022/04/18 01:53:55;;;;;;;6.20;3.58;;;;;;;1.33;nan;100528.81;5011809;28;20037;-69
2022/04/18 01:56:20;;;;;;;8.63;4.05;;;;;;;1.42;nan;100543.41;5011921;28;20438;-68
2022/04/18 01:58:45;;;;;;;7.22;3.80;;;;;;;1.22;nan;100513.53;5012634;28;20080;-69
2022/04/18 02:01:11;;;;;;;7.90;4.15;;;;;;;1.41;nan;100548.75;5012236;28;20489;-68
2022/04/18 02:03:41;;;;;;;8.80;4.03;;;;;;;1.41;nan;100548.75;5012758;28;20036;-68
2022/04/18 02:06:06;;;;;;;8.02;3.70;;;;;;;1.42;nan;100548.59;5012896;28;20061;-69
2022/04/18 02:08:32;;;;;;;6.45;3.70;;;;;;;1.47;nan;100554.09;5010609;28;20407;-68
2022/04/18 02:10:57;;;;;;;6.15;3.70;;;;;;;1.41;nan;100547.00;5012698;28;20048;-69
2022/04/18 02:13:24;;;;;;;7.97;3.78;;;;;;;1.42;nan;100551.19;5011029;28;20073;-68
2022/04/18 02:15:50;;;;;;;6.85;4.13;;;;;;;1.30;nan;100538.72;5012262;28;20038;-68
2022/04/18 02:18:15;;;;;;;10.55;5.25;;;;;;;1.31;nan;100535.13;5011963;28;20060;-67
2022/04/18 02:20:41;;;;;;;7.15;4.30;;;;;;;1.26;nan;100541.59;5012284;28;20515;-68
2022/04/18 02:23:06;;;;;;;9.27;4.55;;;;;;;1.29;nan;100543.06;5012450;28;20144;-67
2022/04/18 02:25:32;;;;;;;11.95;5.78;;;;;;;1.12;nan;100523.25;5012017;28;20048;-68
2022/04/18 02:27:58;;;;;;;11.65;4.60;;;;;;;0.99;nan;100510.78;5010633;28;20048;-71
2022/04/18 02:30:24;;;;;;;9.10;4.15;;;;;;;0.97;nan;100534.25;5011216;28;20073;-67
2022/04/18 02:32:52;;;;;;;11.48;4.50;;;;;;;0.98;nan;100535.91;5011890;28;20440;-68
2022/04/18 02:35:24;;;;;;;10.32;4.60;;;;;;;0.89;nan;100531.66;5011095;28;20689;-68
2022/04/18 02:37:50;;;;;;;10.07;4.70;;;;;;;0.82;nan;100523.69;5012524;28;20049;-68
2022/04/18 02:40:16;;;;;;;11.93;4.57;;;;;;;0.77;nan;100527.75;5013055;28;20037;-68
2022/04/18 02:42:45;;;;;;;8.52;4.03;;;;;;;0.66;nan;100518.47;5013489;28;20092;-68
2022/04/18 02:45:15;;;;;;;7.78;4.47;;;;;;;0.64;nan;100531.56;5012303;28;20034;-67
2022/04/18 02:47:41;;;;;;;11.30;4.65;;;;;;;0.62;nan;100522.31;5012229;28;20034;-69
2022/04/18 02:50:07;;;;;;;9.63;4.70;;;;;;;0.54;nan;100514.53;5014762;28;20037;-69
2022/04/18 02:52:33;;;;;;;11.57;5.00;;;;;;;0.42;nan;100491.50;5011790;28;20029;-69
2022/04/18 02:54:59;;;;;;;9.55;4.63;;;;;;;0.57;nan;100520.19;5012465;28;20030;-69
2022/04/18 02:57:24;;;;;;;9.95;4.97;;;;;;;0.43;nan;100502.66;5011690;28;20033;-70
2022/04/18 02:59:50;;;;;;;9.88;4.85;;;;;;;0.46;nan;100497.19;5017593;28;20547;-69
2022/04/18 03:02:15;;;;;;;10.75;5.22;;;;;;;0.44;nan;100499.13;5025470;28;20034;-68
2022/04/18 03:04:41;;;;;;;16.58;5.97;;;;;;;0.42;nan;100503.63;5010450;28;20038;-69
2022/04/18 03:07:06;;;;;;;10.82;5.30;;;;;;;0.41;nan;100500.25;5024226;28;20108;-69
2022/04/18 03:09:31;;;;;;;9.80;5.47;;;;;;;0.38;nan;100505.75;5013384;28;20068;-68
2022/04/18 03:11:57;;;;;;;9.45;4.97;;;;;;;0.32;nan;100505.53;5011666;28;20034;-69
2022/04/18 03:14:24;;;;;;;8.75;4.57;;;;;;;0.32;nan;100505.53;5009681;28;20041;-68
2022/04/18 03:16:50;;;;;;;11.52;4.78;;;;;;;0.38;nan;100503.16;5019727;28;20072;-69
2022/04/18 03:19:16;;;;;;;8.18;4.47;;;;;;;0.41;nan;100496.84;5008486;28;20038;-68
2022/04/18 03:21:42;;;;;;;8.88;4.95;;;;;;;0.47;nan;100503.19;5011205;28;20046;-69
2022/04/18 03:24:07;;;;;;;10.88;5.15;;;;;;;0.42;nan;100491.50;5010854;28;20038;-69
2022/04/18 03:26:33;;;;;;;9.25;5.40;;;;;;;0.48;nan;100502.19;5010597;28;20040;-69
2022/04/18 03:28:58;;;;;;;12.90;5.47;;;;;;;0.46;nan;100507.56;5010973;28;20566;-69
2022/04/18 03:31:24;;;;;;;9.43;5.40;;;;;;;0.47;nan;100511.75;5010932;28;20042;-68
2022/04/18 03:33:49;;;;;;;13.30;6.25;;;;;;;0.50;nan;100508.84;5011633;28;20692;-68
2022/04/18 03:41:43;;;;;;;12.25;5.57;;;;;;;0.36;nan;100492.13;5010425;28;20124;-68
2022/04/18 03:44:09;;;;;;;15.43;6.05;;;;;;;0.27;nan;100472.34;5011063;28;20120;-68
2022/04/18 03:46:35;;;;;;;14.20;6.35;;;;;;;0.33;nan;100481.25;5010628;28;20037;-67
2022/04/18 03:49:00;;;;;;;18.25;7.13;;;;;;;0.45;nan;100492.97;5010912;28;20034;-68
2022/04/18 03:51:25;;;;;;;16.20;7.97;;;;;;;0.41;nan;100492.47;5010687;28;20033;-68
2022/04/18 03:53:51;;;;;;;20.92;8.70;;;;;;;0.47;nan;100501.38;5010607;28;20034;-68
2022/04/18 03:56:16;;;;;;;21.67;9.70;;;;;;;0.44;nan;100499.13;5010639;28;20413;-68
2022/04/18 03:58:42;;;;;;;16.75;7.78;;;;;;;0.34;nan;100478.53;5019879;28;20073;-69
2022/04/18 04:01:07;;;;;;;16.35;7.07;;;;;;;0.34;nan;100477.72;5023167;28;20045;-69
2022/04/18 04:03:32;;;;;;;20.98;6.72;;;;;;;0.35;nan;100474.94;5020958;28;20068;-68
2022/04/18 04:05:58;;;;;;;19.17;7.38;;;;;;;0.40;nan;100492.63;5022795;28;20030;-68
2022/04/18 04:08:24;;;;;;;23.55;7.95;;;;;;;0.38;nan;100484.19;5022673;28;20038;-68
2022/04/18 04:10:50;;;;;;;23.05;9.18;;;;;;;0.46;nan;100492.00;5021769;28;20038;-69
2022/04/18 04:13:16;;;;;;;28.75;11.10;;;;;;;0.44;nan;100490.53;5014993;28;20061;-69
2022/04/18 04:15:42;;;;;;;28.00;12.30;;;;;;;0.46;nan;100488.59;5009570;28;20076;-69
2022/04/18 04:18:07;;;;;;;24.17;10.60;;;;;;;0.53;nan;100498.19;5010802;28;20042;-69
2022/04/18 04:20:33;;;;;;;23.67;9.75;;;;;;;0.54;nan;100493.81;5009925;28;20034;-69
2022/04/18 04:22:58;;;;;;;24.55;9.95;;;;;;;0.52;nan;100478.41;5010474;28;20046;-69
2022/04/18 04:25:24;;;;;;;19.85;9.52;;;;;;;0.65;nan;100488.34;5008756;28;20571;-69
2022/04/18 04:27:49;;;;;;;26.23;9.75;;;;;;;0.64;nan;100484.91;5009354;28;20041;-69
2022/04/18 04:30:14;;;;;;;36.08;14.10;;;;;;;0.73;nan;100487.56;5024961;28;20073;-70
2022/04/18 04:32:40;;;;;;;31.83;12.38;;;;;;;0.72;nan;100478.97;5017280;28;20085;-67
2022/04/18 04:35:06;;;;;;;37.90;12.65;;;;;;;0.73;nan;100479.78;5021860;28;20066;-68
2022/04/18 04:37:31;;;;;;;36.70;13.68;;;;;;;0.74;nan;100465.84;5023922;28;20492;-70
2022/04/18 04:39:57;;;;;;;27.02;12.18;;;;;;;0.91;nan;100479.63;5009497;28;20049;-72
2022/04/18 04:42:22;;;;;;;20.25;8.77;;;;;;;1.02;nan;100490.50;5008947;28;20030;-71
2022/04/18 04:44:47;;;;;;;20.08;8.55;;;;;;;0.99;nan;100483.06;5009903;28;20038;-71
2022/04/18 04:47:13;;;;;;;25.95;8.13;;;;;;;1.16;nan;100496.84;5009893;28;20551;-71
2022/04/18 04:49:38;;;;;;;23.92;8.68;;;;;;;1.24;nan;100496.84;5008499;28;20042;-72
2022/04/18 04:52:05;;;;;;;19.42;8.25;;;;;;;;;;5011407;28;20088;-71
2022/04/18 04:54:30;;;;;;;16.95;7.88;;;;;;;;;;5011105;28;20034;-70
2022/04/18 04:56:56;;;;;;;15.68;7.57;;;;;;;;;;5012130;28;20038;-69
2022/04/18 04:59:21;;;;;;;19.27;7.33;;;;;;;;;;5012039;28;20026;-69
2022/04/18 05:01:46;;;;;;;14.23;7.90;;;;;;;1.55;nan;100490.19;5012960;28;20788;-70
2022/04/18 05:04:12;;;;;;;17.83;7.05;;;;;;;1.67;nan;100499.28;5007547;28;20263;-71
2022/04/18 05:06:37;;;;;;;14.60;7.32;;;;;;;1.74;nan;100499.44;5015765;28;20125;-71
2022/04/18 05:09:03;;;;;;;24.15;7.78;;;;;;;1.81;nan;100496.00;5011190;28;20079;-72
2022/04/18 05:11:28;;;;;;;17.02;8.13;;;;;;;1.99;nan;100500.19;5013386;28;20391;-72
2022/04/18 05:13:54;;;;;;;16.15;7.85;;;;;;;2.06;nan;100494.19;5029074;28;20679;-72
2022/04/18 05:16:20;;;;;;;17.95;7.28;;;;;;;2.19;nan;100488.44;5014348;28;20451;-71
2022/04/18 05:18:45;;;;;;;11.88;6.60;;;;;;;2.34;nan;100504.94;5013217;28;20048;-72
2022/04/18 05:21:11;;;;;;;12.82;6.85;;;;;;;2.48;nan;100487.03;5021614;28;20042;-71
2022/04/18 05:23:37;;;;;;;14.52;7.10;;;;;;;2.57;nan;100493.00;5012627;28;20511;-71
2022/04/18 05:26:02;;;;;;;15.05;6.85;;;;;;;2.59;nan;100475.47;5026108;28;20037;-69
2022/04/18 05:28:28;;;;;;;18.92;6.80;;;;;;;2.66;nan;100479.81;5011749;28;20849;-70
2022/04/18 05:30:53;;;;;;;12.23;6.53;;;;;;;2.94;nan;100495.72;5013426;28;20038;-70
2022/04/18 05:33:21;;;;;;;13.23;6.03;;;;;;;3.03;nan;100501.69;5010658;28;20069;-69
2022/04/18 05:35:47;;;;;;;10.60;6.07;;;;;;;3.22;nan;100510.00;4999269;28;20041;-70
2022/04/18 05:38:14;;;;;;;11.75;5.95;;;;;;;3.17;nan;100485.31;5001051;28;20050;-70
2022/04/18 05:40:40;;;;;;;13.80;5.95;;;;;;;3.40;nan;100494.91;5011747;28;20539;-71
2022/04/18 05:43:08;;;;;;;13.18;5.65;;;;;;;3.58;nan;100499.78;5009841;28;20057;-71
2022/04/18 05:45:37;;;;;;;9.30;5.22;;;;;;;3.61;nan;100491.63;4993230;28;20057;-69
2022/04/18 05:48:03;;;;;;;19.98;5.63;;;;;;;3.77;nan;100498.47;5009344;28;20057;-69
2022/04/18 05:50:28;;;;;;;8.10;4.95;;;;;;;3.79;nan;100488.69;5007886;28;20079;-70
2022/04/18 05:52:54;;;;;;;9.82;4.95;;;;;;;3.96;nan;100511.00;5007611;28;20522;-71
2022/04/18 05:55:22;;;;;;;12.35;5.45;;;;;;;4.10;nan;100505.97;5011301;28;20042;-70
2022/04/18 05:57:49;;;;;;;9.50;5.07;;;;;;;4.10;nan;100498.16;5013138;28;20041;-70
2022/04/18 06:00:16;;;;;;;8.40;4.68;;;;;;;4.32;nan;100499.84;5009455;28;20029;-71
2022/04/18 06:02:41;;;;;;;6.18;4.13;;;;;;;4.45;nan;100496.59;5006112;28;20044;-69
2022/04/18 06:05:07;;;;;;;10.95;4.60;;;;;;;4.58;nan;100507.19;5008661;28;20046;-68
2022/04/18 06:07:34;;;;;;;7.53;4.05;;;;;;;4.61;nan;100496.38;5011634;28;20041;-69
2022/04/18 06:09:59;;;;;;;7.55;4.47;;;;;;;4.70;nan;100510.13;5009990;28;20148;-70
2022/04/18 06:12:25;;;;;;;6.60;4.07;;;;;;;4.69;nan;100487.63;5005895;28;20487;-69
2022/04/18 06:14:50;;;;;;;7.65;4.35;;;;;;;4.84;nan;100493.63;5004208;28;20036;-69
2022/04/18 06:17:16;;;;;;;7.60;4.50;;;;;;;4.95;nan;100500.16;5020545;28;20029;-70
2022/04/18 06:19:41;;;;;;;8.57;4.38;;;;;;;4.92;nan;100476.25;5005980;28;20042;-69
2022/04/18 06:22:07;;;;;;;5.32;3.50;;;;;;;5.15;nan;100500.38;5004676;28;20135;-70
2022/04/18 06:24:32;;;;;;;8.93;4.30;;;;;;;5.27;nan;100503.28;5010557;28;20484;-69
2022/04/18 06:26:57;;;;;;;9.80;4.60;;;;;;;5.19;nan;100482.50;5009164;28;20030;-70
2022/04/18 06:29:23;;;;;;;8.70;5.18;;;;;;;5.41;nan;100509.41;5010255;28;20042;-68
2022/04/18 06:31:49;;;;;;;10.20;4.70;;;;;;;5.48;nan;100495.44;5010026;28;20034;-70
2022/04/18 06:34:16;;;;;;;10.05;4.80;;;;;;;5.54;nan;100494.66;5008324;28;20037;-71
2022/04/18 06:36:42;;;;;;;9.48;4.70;;;;;;;5.72;nan;100498.59;5010299;28;20042;-70
2022/04/18 06:39:07;;;;;;;5.78;3.92;;;;;;;5.77;nan;100491.03;5010746;28;20034;-70
2022/04/18 06:41:32;;;;;;;11.25;4.97;;;;;;;5.88;nan;100497.50;5008949;28;20037;-71
2022/04/18 06:43:58;;;;;;;5.72;3.97;;;;;;;5.89;nan;100492.09;5008416;28;20114;-70
2022/04/18 06:46:23;;;;;;;7.30;4.28;;;;;;;5.92;nan;100490.91;5008279;28;20498;-71
2022/04/18 06:48:49;;;;;;;7.45;4.10;;;;;;;5.99;nan;100488.38;5019099;28;20042;-70
2022/04/18 06:51:14;;;;;;;9.25;4.60;;;;;;;6.05;nan;100493.63;5006000;28;20042;-70
2022/04/18 06:53:39;;;;;;;5.55;3.72;;;;;;;5.99;nan;100475.31;5009477;28;20121;-70
2022/04/18 06:58:49;;;;;;;6.65;3.85;;;;;;;6.20;nan;100487.47;5021201;28;20069;-70
2022/04/18 07:01:14;;;;;;;9.05;4.43;;;;;;;6.33;nan;100492.75;5008376;28;20066;-69
2022/04/18 07:03:39;;;;;;;9.15;4.28;;;;;;;6.36;nan;100490.56;5007114;28;20491;-70
2022/04/18 07:06:05;;;;;;;6.78;4.10;;;;;;;6.36;nan;100487.13;5006634;28;20021;-69
2022/04/18 07:08:30;;;;;;;5.75;3.30;;;;;;;6.46;nan;100492.00;5028827;28;20501;-70
2022/04/18 07:10:56;;;;;;;6.47;3.60;;;;;;;6.50;nan;100482.78;5009854;28;20033;-70
2022/04/18 07:13:21;;;;;;;6.97;3.97;;;;;;;6.64;nan;100494.91;5020259;28;20088;-69
2022/04/18 07:15:46;;;;;;;4.75;3.30;;;;;;;6.66;nan;100490.28;5004738;28;20042;-70
2022/04/18 07:18:12;;;;;;;5.82;3.30;;;;;;;6.80;nan;100494.56;5000195;28;20105;-69
2022/04/18 07:20:38;;;;;;;4.05;2.85;;;;;;;6.86;nan;100500.00;5007976;28;20034;-69
2022/04/18 07:23:03;;;;;;;4.47;3.05;;;;;;;6.73;nan;100462.31;5004134;28;20125;-70
2022/04/18 07:25:29;;;;;;;4.47;2.83;;;;;;;6.94;nan;100484.09;5024408;28;20023;-71
2022/04/18 07:27:54;;;;;;;3.72;2.72;;;;;;;6.95;nan;100472.63;5010359;28;20080;-71
2022/04/18 07:30:20;;;;;;;4.45;2.95;;;;;;;;;;5006325;28;20034;-70
2022/04/18 07:32:46;;;;;;;7.60;2.83;;;;;;;7.20;nan;100485.94;5009567;28;20059;-69
2022/04/18 07:35:12;;;;;;;4.57;2.92;;;;;;;7.29;nan;100481.31;5019272;28;20034;-72
2022/04/18 07:38:48;;;;;;;4.53;3.03;;;;;;;7.28;nan;100471.84;5014731;28;20046;-72
2022/04/18 07:40:23;;;;;;;3.65;2.55;;;;;;;7.34;nan;100471.03;5005781;28;20037;-70
2022/04/18 07:42:49;;;;;;;4.25;2.75;;;;;;;7.49;nan;100481.31;5004053;28;20250;-71
2022/04/18 07:45:14;;;;;;;3.97;2.70;;;;;;;7.55;nan;100473.47;5009160;28;20053;-72
2022/04/18 07:47:39;;;;;;;5.57;2.65;;;;;;;7.66;nan;100472.84;5005694;28;20103;-72
2022/04/18 07:50:06;;;;;;;4.00;2.60;;;;;;;7.72;nan;100470.41;5008366;28;20126;-71
2022/04/18 07:52:31;;;;;;;4.28;2.75;;;;;;;7.72;nan;100457.31;5009829;28;20034;-71
2022/04/18 07:54:56;;;;;;;3.55;2.50;;;;;;;7.80;nan;100457.88;5005266;28;20045;-70
2022/04/18 07:57:22;;;;;;;4.00;2.35;;;;;;;7.93;nan;100466.75;5010163;28;20041;-70
2022/04/18 07:59:47;;;;;;;4.90;2.00;;;;;;;8.01;nan;100461.28;5008713;28;20116;-70
2022/04/18 08:02:12;;;;;;;4.25;2.25;;;;;;;8.11;nan;100456.41;5010395;28;20443;-70
2022/04/18 08:04:39;;;;;;;3.90;2.60;;;;;;;8.13;nan;100451.75;5008321;28;20496;-71
2022/04/18 08:07:05;;;;;;;3.70;2.38;;;;;;;8.21;nan;100464.66;5007335;28;20038;-70
2022/04/18 08:09:30;;;;;;;3.88;2.20;;;;;;;8.28;nan;100465.44;5009785;28;20041;-69
2022/04/18 08:11:56;;;;;;;2.58;1.90;;;;;;;8.39;nan;100469.22;5010965;28;20037;-69
2022/04/18 08:14:21;;;;;;;2.78;1.90;;;;;;;8.34;nan;100458.53;5007581;28;20037;-69
2022/04/18 08:16:46;;;;;;;3.70;1.90;;;;;;;8.40;nan;100462.16;4995583;28;20096;-68
2022/04/18 08:19:12;;;;;;;5.50;1.63;;;;;;;8.50;nan;100462.53;5003505;28;20034;-69
2022/04/18 08:21:37;;;;;;;2.75;2.08;;;;;;;8.28;nan;100426.09;5005084;28;20041;-71
2022/04/18 08:24:03;;;;;;;3.47;2.00;;;;;;;8.50;nan;100454.69;5008976;28;20034;-71
2022/04/18 08:26:28;;;;;;;3.67;2.17;;;;;;;8.58;nan;100461.50;5019955;28;20040;-71
2022/04/18 08:28:54;;;;;;;3.80;2.60;;;;;;;8.59;nan;100461.25;5013698;28;20068;-70
2022/04/18 08:31:19;;;;;;;2.85;2.05;;;;;;;8.61;nan;100458.44;5001232;28;20048;-71
2022/04/18 08:33:45;;;;;;;3.90;2.20;;;;;;;8.64;nan;100452.75;5002039;28;20129;-71
2022/04/18 08:36:10;;;;;;;3.42;2.50;;;;;;;8.54;nan;100426.19;5003809;28;20038;-70
2022/04/18 08:38:36;;;;;;;3.92;2.40;;;;;;;8.93;nan;100454.00;5013806;28;20076;-70
2022/04/18 08:41:09;;;;;;;5.45;2.40;;;;;;;8.99;nan;100458.41;5012918;28;20625;-70
2022/04/18 08:43:35;;;;;;;4.32;2.35;;;;;;;8.96;nan;100440.47;5013715;28;20065;-71
2022/04/18 08:46:05;;;;;;;3.08;2.33;;;;;;;9.00;nan;100436.38;5013160;28;21382;-71
2022/04/18 08:54:01;;;;;;;5.45;2.20;;;;;;;9.16;nan;100438.47;5010997;28;20128;-71
2022/04/18 08:56:27;;;;;;;3.40;2.20;;;;;;;9.09;nan;100421.97;5009777;28;20480;-69
2022/04/18 08:58:53;;;;;;;2.63;2.08;;;;;;;9.28;nan;100422.00;5005078;28;20290;-70
2022/04/18 09:01:18;;;;;;;3.30;2.15;;;;;;;9.35;nan;100420.13;5007283;28;20030;-69
2022/04/18 09:03:44;;;;;;;3.55;2.10;;;;;;;9.59;nan;100432.44;4999925;28;20030;-73
2022/04/18 09:06:11;;;;;;;3.10;1.88;;;;;;;9.73;nan;100421.78;5019060;28;20065;-73
2022/04/18 09:08:46;;;;;;;4.45;2.47;;;;;;;9.82;nan;100422.28;5009476;28;20040;-73
2022/04/18 09:11:25;;;;;;;3.20;2.03;;;;;;;9.76;nan;100432.66;5029140;28;20126;-72
2022/04/18 09:13:57;;;;;;;3.38;2.10;;;;;;;9.68;nan;100429.53;5012970;28;20038;-71
2022/04/18 09:16:28;;;;;;;1.98;1.60;;;;;;;9.53;nan;100425.44;5016093;28;20550;-71
2022/04/18 09:19:10;;;;;;;3.25;1.75;;;;;;;9.55;nan;100404.16;5013349;28;20052;-72
2022/04/18 09:21:44;;;;;;;2.42;1.60;;;;;;;9.79;nan;100415.66;5011784;28;20037;-72
2022/04/18 09:24:24;;;;;;;4.60;1.95;;;;;;;9.81;nan;100418.88;5009859;28;20385;-70
2022/04/18 09:26:50;;;;;;;2.38;1.75;;;;;;;9.86;nan;100403.22;5012811;28;20399;-72
2022/04/18 09:29:17;;;;;;;3.60;1.80;;;;;;;9.88;nan;100403.00;5006375;28;20039;-72
2022/04/18 09:31:43;;;;;;;2.55;2.10;;;;;;;9.97;nan;100389.34;5021732;28;20033;-71
2022/04/18 09:34:08;;;;;;;2.63;1.73;;;;;;;9.86;nan;100365.59;5010186;28;20431;-70
2022/04/18 09:36:34;;;;;;;3.55;1.90;;;;;;;10.01;nan;100393.16;5012263;28;20495;-69
2022/04/18 09:38:59;;;;;;;3.40;2.10;;;;;;;9.88;nan;100389.88;5010715;28;20030;-71
2022/04/18 09:41:30;;;;;;;3.25;1.75;;;;;;;9.91;nan;100384.97;5020435;28;20044;-71
2022/04/18 09:43:56;;;;;;;3.05;1.95;;;;;;;9.91;nan;100389.41;4994071;28;20732;-72
2022/04/18 09:46:23;;;;;;;2.88;2.10;;;;;;;9.91;nan;100398.13;5000991;28;20492;-73
2022/04/18 09:48:50;;;;;;;3.33;1.58;;;;;;;9.99;nan;100392.56;4999429;28;20038;-74
2022/04/18 09:51:16;;;;;;;3.38;1.80;;;;;;;10.13;nan;100384.50;5025779;28;20487;-73
2022/04/18 09:53:45;;;;;;;4.80;2.78;;;;;;;10.30;nan;100388.16;5009926;28;20108;-72
2022/04/18 09:56:20;;;;;;;5.65;3.40;;;;;;;10.42;nan;100381.09;5010841;28;20107;-73
2022/04/18 09:58:45;;;;;;;6.65;3.55;;;;;;;10.48;nan;100378.59;5011630;28;20084;-73
2022/04/18 10:01:12;;;;;;;5.05;2.35;;;;;;;10.54;nan;100367.19;5013034;28;20030;-72
2022/04/18 10:03:39;;;;;;;4.88;2.58;;;;;;;10.69;nan;100378.09;5013884;28;20038;-73
2022/04/18 10:06:06;;;;;;;3.55;2.20;;;;;;;10.56;nan;100363.28;5008473;28;20026;-72
2022/04/18 10:08:33;;;;;;;4.18;2.25;;;;;;;10.69;nan;100369.38;5026565;28;20484;-72
2022/04/18 10:11:01;;;;;;;2.45;2.00;;;;;;;10.64;nan;100370.06;5026488;28;20459;-74
2022/04/18 10:13:28;;;;;;;7.85;2.25;;;;;;;10.60;nan;100361.78;5022889;28;20369;-72
2022/04/18 10:15:55;;;;;;;2.65;1.80;;;;;;;10.64;nan;100352.41;5011496;28;20741;-74
2022/04/18 10:18:22;;;;;;;2.17;1.90;;;;;;;10.67;nan;100339.84;5010763;28;20069;-72
2022/04/18 10:20:53;;;;;;;2.40;1.98;;;;;;;10.90;nan;100354.88;5004018;28;20042;-73
2022/04/18 10:23:46;;;;;;;4.22;2.10;;;;;;;11.04;nan;100351.00;5021377;28;20038;-73
2022/04/18 10:26:51;;;;;;;2.97;2.05;;;;;;;10.95;nan;100341.81;5002868;28;20420;-71
2022/04/18 10:29:24;;;;;;;3.47;2.50;;;;;;;10.79;nan;100359.09;4968710;28;20038;-73
2022/04/18 10:31:53;;;;;;;4.13;2.47;;;;;;;10.69;nan;100349.13;4952227;28;20058;-74
2022/04/18 10:34:23;;;;;;;3.58;2.90;;;;;;;10.68;nan;100352.78;4971142;28;20034;-73
2022/04/18 10:36:54;;;;;;;4.68;1.90;;;;;;;10.55;nan;100329.28;4965745;28;20051;-73
2022/04/18 10:39:20;;;;;;;6.18;1.98;;;;;;;10.65;nan;100337.41;4966209;28;20142;-74
2022/04/18 10:41:47;;;;;;;3.53;1.90;;;;;;;10.73;nan;100345.00;4968801;28;20405;-73
2022/04/18 10:44:14;;;;;;;2.22;1.85;;;;;;;10.71;nan;100319.94;4970315;28;20038;-73
2022/04/18 10:46:40;;;;;;;3.15;2.20;;;;;;;10.95;nan;100329.44;4970301;28;20034;-73
2022/04/18 10:49:16;;;;;;;3.05;1.98;;;;;;;11.12;nan;100331.41;4969194;28;20039;-73
2022/04/18 10:51:45;;;;;;;3.60;2.38;;;;;;;11.18;nan;100320.75;4969406;28;20600;-73
2022/04/18 10:54:18;;;;;;;3.30;2.50;;;;;;;10.95;nan;100318.91;4967550;28;20109;-70
2022/04/18 10:56:53;;;;;;;2.00;1.30;;;;;;;10.88;nan;100336.66;4968185;28;20054;-71
2022/04/18 10:59:29;;;;;;;1.98;1.60;;;;;;;10.62;nan;100298.38;4966815;28;20039;-71
2022/04/18 11:01:59;;;;;;;1.95;1.48;;;;;;;10.86;nan;100313.16;4968763;28;20042;-74
2022/04/18 11:04:27;;;;;;;2.55;2.20;;;;;;;10.99;nan;100308.69;4969634;28;20039;-74
2022/04/18 11:07:07;;;;;;;3.25;1.95;;;;;;;11.22;nan;100321.06;5010802;28;20026;-69
2022/04/18 11:09:44;;;;;;;3.63;2.20;;;;;;;11.14;nan;100316.16;5007465;28;20037;-73
2022/04/18 11:12:16;;;;;;;3.67;2.05;;;;;;;11.03;nan;100323.03;5022731;28;20096;-72
2022/04/18 11:14:47;;;;;;;3.70;1.67;;;;;;;10.88;nan;100326.13;5009107;28;20042;-72
2022/04/18 11:17:23;;;;;;;2.55;1.75;;;;;;;10.78;nan;100324.06;5011341;28;20046;-70
2022/04/18 11:19:49;;;;;;;2.97;2.10;;;;;;;10.70;nan;100310.41;5011269;28;20037;-70
2022/04/18 11:22:14;;;;;;;2.95;2.08;;;;;;;10.70;nan;100321.72;5010897;28;20032;-69
2022/04/18 11:24:40;;;;;;;3.40;2.10;;;;;;;10.73;nan;100323.13;5008693;28;20113;-69
2022/04/18 11:27:15;;;;;;;3.55;2.10;;;;;;;10.73;nan;100320.50;5009582;28;20549;-73
2022/04/18 11:29:44;;;;;;;4.72;2.13;;;;;;;10.75;nan;100321.88;5008745;28;20050;-69
2022/04/18 11:32:14;;;;;;;2.67;1.73;;;;;;;10.81;nan;100320.94;5004802;28;20124;-70
2022/04/18 11:34:43;;;;;;;5.47;1.88;;;;;;;10.77;nan;100316.38;5019231;28;20375;-74
2022/04/18 11:37:10;;;;;;;3.08;1.95;;;;;;;10.65;nan;100313.72;5018572;28;20091;-73
2022/04/18 11:39:43;;;;;;;2.40;1.98;;;;;;;10.69;nan;100317.50;5020094;28;20045;-73
2022/04/18 11:42:12;;;;;;;3.53;1.83;;;;;;;10.66;nan;100306.66;5016901;28;20143;-71
2022/04/18 11:44:40;;;;;;;5.53;2.33;;;;;;;10.60;nan;100303.88;5019421;28;20045;-72
2022/04/18 11:47:10;;;;;;;3.30;1.70;;;;;;;10.65;nan;100305.81;5021062;28;20093;-73
2022/04/18 11:49:40;;;;;;;5.35;1.70;;;;;;;10.71;nan;100306.75;5020445;28;20034;-72
2022/04/18 11:52:06;;;;;;;1.75;1.60;;;;;;;10.68;nan;100308.03;5010487;28;20038;-73
2022/04/18 11:54:32;;;;;;;3.33;1.67;;;;;;;10.68;nan;100289.59;5010656;28;20385;-71
2022/04/18 11:56:59;;;;;;;3.35;1.70;;;;;;;10.81;nan;100301.72;5010137;28;20038;-72
2022/04/18 11:59:32;;;;;;;2.85;2.20;;;;;;;10.77;nan;100295.28;5010463;28;20041;-71
2022/04/18 12:07:31;;;;;;;2.25;1.63;;;;;;;10.84;nan;100269.66;5013291;28;20038;-72
2022/04/18 12:09:57;;;;;;;2.28;1.77;;;;;;;10.88;nan;100283.97;5011651;28;20048;-74
2022/04/18 12:12:31;;;;;;;4.25;1.30;;;;;;;10.83;nan;100271.47;5009632;28;20399;-72